Time;durP1;ratioP1;P1;durP2;ratioP2;P2;SDS_P1;SDS_P2;PMS_P1;PMS_P2;Temp;Humidity;BMP_temperature;BMP_pressure;BME280_temperature;BME280_humidity;BME280_pressure;Samples;Min_cycle;Max_cycle;Signal;HPM_P1;HPM_P2
2022/10/16 00:01:41;;;;;;;6.63;4.03;;;12.10;99.90;;;;;;5053807;28;20091;-80
2022/10/16 00:04:06;;;;;;;3.05;2.17;;;12.10;99.90;;;;;;5054192;28;20049;-78
2022/10/16 00:06:32;;;;;;;3.53;2.30;;;12.20;99.90;;;;;;5054044;28;20053;-81
2022/10/16 00:08:58;;;;;;;2.78;1.58;;;12.10;99.90;;;;;;5086165;28;20056;-78
2022/10/16 00:11:27;;;;;;;3.20;1.77;;;12.10;99.90;;;;;;5053730;28;20044;-79
2022/10/16 00:13:57;;;;;;;6.38;2.83;;;12.10;99.90;;;;;;5053797;28;20501;-78
2022/10/16 00:16:23;;;;;;;4.32;2.50;;;12.10;99.90;;;;;;5053997;28;20107;-78
2022/10/16 00:18:48;;;;;;;5.53;2.05;;;11.70;99.90;;;;;;5054010;28;20041;-79
2022/10/16 00:21:18;;;;;;;6.15;2.00;;;12.10;99.90;;;;;;5053666;28;20050;-79
2022/10/16 00:23:44;;;;;;;4.13;2.05;;;12.10;99.90;;;;;;5053574;28;20064;-79
2022/10/16 00:26:15;;;;;;;5.53;2.22;;;12.10;99.90;;;;;;5052193;28;20444;-79
2022/10/16 00:28:40;;;;;;;3.65;2.45;;;12.10;99.90;;;;;;5052743;28;20052;-78
2022/10/16 00:31:09;;;;;;;4.90;1.92;;;12.10;99.90;;;;;;5053533;28;20037;-80
2022/10/16 00:33:36;;;;;;;9.25;2.20;;;12.10;99.90;;;;;;5053342;28;20037;-78
2022/10/16 00:36:04;;;;;;;3.58;1.73;;;12.10;99.90;;;;;;5053257;28;20124;-79
2022/10/16 00:38:30;;;;;;;6.18;2.25;;;12.10;99.90;;;;;;5053252;28;20051;-77
2022/10/16 00:40:56;;;;;;;4.95;2.10;;;12.10;99.90;;;;;;5052450;28;20120;-78
2022/10/16 00:43:44;;;;;;;8.43;2.13;;;12.10;99.90;;;;;;5053132;28;20051;-79
2022/10/16 00:46:15;;;;;;;4.95;2.38;;;12.10;99.90;;;;;;5053023;28;20048;-78
2022/10/16 00:48:45;;;;;;;5.15;2.13;;;12.10;99.90;;;;;;5052874;28;20044;-81
2022/10/16 00:51:11;;;;;;;3.47;2.08;;;12.10;99.90;;;;;;5068431;28;20076;-81
2022/10/16 00:53:37;;;;;;;4.43;1.60;;;12.20;99.90;;;;;;5085428;28;20374;-81
2022/10/16 00:56:03;;;;;;;3.85;1.75;;;12.20;99.90;;;;;;5085224;28;20430;-80
2022/10/16 00:58:29;;;;;;;4.80;2.30;;;12.20;99.90;;;;;;5052917;28;20133;-79
2022/10/16 01:00:54;;;;;;;4.47;1.70;;;12.10;99.90;;;;;;5052503;28;20527;-79
2022/10/16 01:03:23;;;;;;;2.42;1.52;;;12.20;99.90;;;;;;5052682;28;20104;-78
2022/10/16 01:06:10;;;;;;;3.85;1.83;;;12.20;99.90;;;;;;5052739;28;20171;-79
2022/10/16 01:08:55;;;;;;;3.75;1.60;;;12.20;99.90;;;;;;5052610;28;20045;-79
2022/10/16 01:11:36;;;;;;;2.95;1.65;;;12.20;99.90;;;;;;5041911;28;20116;-78
2022/10/16 01:14:36;;;;;;;3.30;2.00;;;12.20;99.90;;;;;;5052565;28;20049;-80
2022/10/16 01:17:09;;;;;;;4.47;1.83;;;12.20;99.90;;;;;;5038762;28;20061;-80
2022/10/16 01:20:11;;;;;;;4.75;1.88;;;12.20;99.90;;;;;;5053203;28;20063;-79
2022/10/16 01:23:07;;;;;;;14.23;4.60;;;12.20;99.90;;;;;;5051412;28;20425;-80
2022/10/16 01:25:54;;;;;;;3.60;1.45;;;12.20;99.90;;;;;;5052816;28;20064;-78
2022/10/16 01:28:26;;;;;;;3.00;1.27;;;12.20;99.90;;;;;;5052216;28;20473;-79
2022/10/16 01:30:57;;;;;;;6.82;1.73;;;12.20;99.90;;;;;;5052473;28;20045;-78
2022/10/16 01:33:39;;;;;;;3.38;2.10;;;12.30;99.90;;;;;;5052351;28;20074;-80
2022/10/16 01:36:14;;;;;;;4.28;2.05;;;12.30;99.90;;;;;;5052775;28;20049;-79
2022/10/16 01:38:41;;;;;;;6.68;2.33;;;12.30;99.90;;;;;;5051973;28;20080;-78
2022/10/16 01:41:18;;;;;;;2.95;1.70;;;12.30;99.90;;;;;;5051842;28;20474;-77
2022/10/16 01:43:49;;;;;;;2.05;1.52;;;12.30;99.90;;;;;;5052166;28;20426;-79
2022/10/16 01:46:18;;;;;;;4.00;2.20;;;12.30;99.90;;;;;;5052684;28;20045;-79
2022/10/16 01:48:43;;;;;;;5.10;1.60;;;12.40;99.90;;;;;;5052122;28;20080;-79
2022/10/16 01:51:13;;;;;;;5.60;2.15;;;12.40;99.90;;;;;;5052470;28;20045;-80
2022/10/16 01:53:41;;;;;;;3.63;1.77;;;12.40;99.90;;;;;;5052120;28;20040;-79
2022/10/16 01:56:09;;;;;;;3.33;1.75;;;12.40;99.90;;;;;;5052364;28;20044;-77
2022/10/16 01:58:43;;;;;;;2.30;1.65;;;12.50;99.90;;;;;;5052475;28;20391;-79
2022/10/16 02:01:11;;;;;;;4.10;1.88;;;12.40;99.90;;;;;;5052551;28;20071;-79
2022/10/16 02:03:39;;;;;;;4.38;1.40;;;12.40;99.90;;;;;;5052678;28;20205;-80
2022/10/16 02:06:04;;;;;;;2.75;1.83;;;12.40;99.90;;;;;;5052220;28;20098;-77
2022/10/16 02:08:31;;;;;;;6.15;2.17;;;12.40;99.90;;;;;;5052351;28;20045;-78
2022/10/16 02:10:58;;;;;;;3.55;1.67;;;12.40;99.90;;;;;;5052427;28;20117;-80
2022/10/16 02:13:57;;;;;;;2.85;1.92;;;12.40;99.90;;;;;;5052142;28;20053;-78
2022/10/16 02:16:37;;;;;;;2.08;1.63;;;12.50;99.90;;;;;;5085425;28;20057;-78
2022/10/16 02:19:04;;;;;;;4.15;1.60;;;12.50;99.90;;;;;;5052066;28;20103;-77
2022/10/16 02:21:51;;;;;;;4.47;1.80;;;12.40;99.90;;;;;;5051720;28;20041;-78
2022/10/16 02:24:46;;;;;;;2.20;1.85;;;12.50;99.90;;;;;;5052483;28;20037;-80
2022/10/16 02:27:30;;;;;;;3.17;1.65;;;12.50;99.90;;;;;;5052515;28;20099;-78
2022/10/16 02:30:20;;;;;;;5.07;2.05;;;12.50;99.90;;;;;;5052561;28;20037;-79
2022/10/16 02:32:48;;;;;;;3.00;1.88;;;12.60;99.90;;;;;;5050903;28;20437;-79
2022/10/16 02:35:18;;;;;;;3.95;1.50;;;12.60;99.90;;;;;;5052378;28;20080;-80
2022/10/16 02:37:45;;;;;;;2.33;2.13;;;12.60;99.90;;;;;;5051703;28;20040;-78
2022/10/16 02:40:11;;;;;;;4.30;2.00;;;12.70;99.90;;;;;;5051906;28;20083;-78
2022/10/16 02:42:39;;;;;;;5.15;2.10;;;12.70;99.90;;;;;;5051662;28;20502;-79
2022/10/16 02:45:06;;;;;;;5.50;2.47;;;12.70;99.90;;;;;;5051746;28;20513;-81
2022/10/16 02:47:32;;;;;;;3.22;1.83;;;12.70;99.90;;;;;;5052213;28;20071;-79
2022/10/16 02:49:58;;;;;;;3.67;1.90;;;12.20;99.90;;;;;;5051939;28;20482;-78
2022/10/16 02:52:23;;;;;;;2.30;1.75;;;12.70;99.90;;;;;;5054325;28;20475;-79
2022/10/16 02:54:49;;;;;;;4.07;2.25;;;12.80;99.90;;;;;;5054290;28;20049;-79
2022/10/16 02:57:15;;;;;;;2.95;2.00;;;12.80;99.90;;;;;;5054854;28;20380;-80
2022/10/16 02:59:41;;;;;;;3.28;2.33;;;12.80;99.90;;;;;;5055554;28;20049;-80
2022/10/16 03:02:06;;;;;;;2.30;1.80;;;12.80;99.90;;;;;;5055016;28;20040;-78
2022/10/16 03:04:32;;;;;;;3.15;1.60;;;12.80;99.90;;;;;;5055034;28;20049;-80
2022/10/16 03:06:58;;;;;;;2.70;2.50;;;12.80;99.90;;;;;;5054993;28;20060;-79
2022/10/16 03:09:23;;;;;;;2.78;2.08;;;12.90;99.90;;;;;;5054754;28;20049;-79
2022/10/16 03:11:49;;;;;;;3.60;2.30;;;12.90;99.90;;;;;;5054621;28;20098;-80
2022/10/16 03:14:15;;;;;;;2.95;2.10;;;12.90;99.90;;;;;;5054923;28;20041;-79
2022/10/16 03:16:40;;;;;;;2.40;1.75;;;12.90;99.90;;;;;;5055139;28;20047;-79
2022/10/16 03:19:06;;;;;;;1.73;1.60;;;12.80;99.90;;;;;;5054794;28;20447;-79
2022/10/16 03:21:32;;;;;;;2.72;1.70;;;12.90;99.90;;;;;;5054651;28;20109;-79
2022/10/16 03:23:57;;;;;;;4.80;1.73;;;12.90;99.90;;;;;;5054692;28;20161;-79
2022/10/16 03:26:23;;;;;;;2.25;1.42;;;12.90;99.90;;;;;;5054301;28;20051;-80
2022/10/16 03:28:49;;;;;;;4.05;1.75;;;12.90;99.90;;;;;;5055178;28;20076;-79
2022/10/16 03:31:14;;;;;;;3.80;1.92;;;12.80;99.90;;;;;;5054964;28;20037;-79
2022/10/16 03:33:40;;;;;;;3.00;1.98;;;12.80;99.90;;;;;;5070263;28;20053;-78
2022/10/16 03:36:06;;;;;;;4.25;1.55;;;12.80;99.90;;;;;;5054579;28;20044;-80
2022/10/16 03:38:32;;;;;;;4.43;2.05;;;12.80;99.90;;;;;;5054462;28;20056;-80
2022/10/16 03:40:58;;;;;;;4.82;1.95;;;12.80;99.90;;;;;;5054711;28;20091;-78
2022/10/16 03:43:23;;;;;;;2.33;1.83;;;12.80;99.90;;;;;;5054405;28;20041;-79
2022/10/16 03:45:52;;;;;;;3.97;2.08;;;12.80;99.90;;;;;;5054367;28;20037;-80
2022/10/16 03:48:19;;;;;;;5.03;1.92;;;12.80;99.90;;;;;;5054261;28;20094;-78
2022/10/16 03:50:46;;;;;;;2.38;1.77;;;12.70;99.90;;;;;;5054376;28;20052;-78
2022/10/16 03:53:11;;;;;;;2.88;2.05;;;12.80;99.90;;;;;;5054228;28;20553;-79
2022/10/16 03:55:37;;;;;;;1.50;1.40;;;12.70;99.90;;;;;;5054248;28;20052;-79
2022/10/16 03:58:03;;;;;;;2.78;1.95;;;12.70;99.90;;;;;;5053990;28;20097;-78
2022/10/16 04:00:28;;;;;;;1.85;1.65;;;12.70;99.90;;;;;;5054515;28;20091;-80
2022/10/16 04:02:54;;;;;;;3.47;1.65;;;12.70;99.90;;;;;;5054458;28;20492;-79
2022/10/16 04:05:20;;;;;;;3.25;1.58;;;12.70;99.90;;;;;;5054139;28;20080;-80
2022/10/16 04:07:46;;;;;;;3.42;1.90;;;12.60;99.90;;;;;;5054003;28;20053;-79
2022/10/16 04:10:11;;;;;;;5.07;1.90;;;12.60;99.90;;;;;;5054103;28;20103;-78
2022/10/16 04:12:37;;;;;;;3.15;1.85;;;12.60;99.90;;;;;;5053796;28;20383;-78
2022/10/16 04:15:03;;;;;;;2.67;1.50;;;12.60;99.90;;;;;;5054193;28;20148;-79
2022/10/16 04:17:28;;;;;;;4.63;1.90;;;12.60;99.90;;;;;;5053729;28;20063;-79
2022/10/16 04:19:54;;;;;;;2.35;1.50;;;12.60;99.90;;;;;;5054377;28;20122;-78
2022/10/16 04:22:20;;;;;;;3.75;1.90;;;12.50;99.90;;;;;;5053549;28;20386;-78
2022/10/16 04:24:45;;;;;;;2.28;1.58;;;12.60;99.90;;;;;;5053687;28;20091;-78
2022/10/16 04:27:11;;;;;;;3.88;1.80;;;12.50;99.90;;;;;;5053874;28;20045;-79
2022/10/16 04:29:37;;;;;;;2.60;1.90;;;12.60;99.90;;;;;;5053508;28;20075;-79
2022/10/16 04:32:02;;;;;;;2.33;1.40;;;12.60;99.90;;;;;;5086102;28;20136;-81
2022/10/16 04:34:28;;;;;;;2.35;1.77;;;12.60;99.90;;;;;;5053464;28;20080;-80
2022/10/16 04:36:54;;;;;;;2.63;2.08;;;12.60;99.90;;;;;;5085973;28;20060;-78
2022/10/16 04:39:20;;;;;;;1.88;1.58;;;12.60;99.90;;;;;;5053326;28;20045;-78
2022/10/16 04:41:45;;;;;;;2.13;1.73;;;12.60;99.90;;;;;;5053724;28;20044;-78
2022/10/16 04:44:11;;;;;;;2.75;1.60;;;12.50;99.90;;;;;;5053523;28;20471;-79
2022/10/16 04:46:37;;;;;;;1.85;1.70;;;12.50;99.90;;;;;;5085858;28;20048;-79
2022/10/16 04:49:02;;;;;;;4.85;2.13;;;12.50;99.90;;;;;;5053134;28;20041;-79
2022/10/16 04:51:28;;;;;;;1.90;1.73;;;12.50;99.90;;;;;;5052746;28;20045;-80
2022/10/16 04:53:54;;;;;;;2.63;1.60;;;12.50;99.90;;;;;;5053437;28;20141;-79
2022/10/16 04:56:21;;;;;;;5.90;2.40;;;12.50;99.90;;;;;;5052100;28;20120;-79
2022/10/16 04:58:47;;;;;;;3.97;1.95;;;12.60;99.90;;;;;;5052912;28;20053;-79
2022/10/16 05:01:13;;;;;;;3.10;2.10;;;12.60;99.90;;;;;;5052879;28;20055;-78
2022/10/16 05:03:39;;;;;;;5.10;2.20;;;12.60;99.90;;;;;;5053443;28;20036;-78
2022/10/16 05:06:08;;;;;;;3.05;2.08;;;12.70;99.90;;;;;;5052967;28;20510;-80
2022/10/16 05:08:33;;;;;;;6.65;2.00;;;12.70;99.90;;;;;;5052735;28;20049;-79
2022/10/16 05:10:59;;;;;;;4.22;1.73;;;12.70;99.90;;;;;;5051428;28;20045;-81
2022/10/16 05:13:25;;;;;;;4.97;2.30;;;12.70;99.90;;;;;;5053104;28;20076;-79
2022/10/16 05:15:51;;;;;;;3.45;2.08;;;12.70;99.90;;;;;;5052674;28;20531;-80
2022/10/16 05:18:17;;;;;;;3.40;2.08;;;12.80;99.90;;;;;;5052903;28;20045;-78
2022/10/16 05:20:43;;;;;;;1.83;1.63;;;12.80;99.90;;;;;;5051724;28;20045;-78
2022/10/16 05:23:10;;;;;;;3.15;1.92;;;12.80;99.90;;;;;;5053421;28;20051;-81
2022/10/16 05:25:36;;;;;;;3.33;2.10;;;12.80;99.90;;;;;;5052455;28;20052;-79
2022/10/16 05:28:02;;;;;;;3.47;2.42;;;12.80;99.90;;;;;;5052509;28;20124;-79
2022/10/16 05:30:28;;;;;;;4.82;2.38;;;12.80;99.90;;;;;;5051763;28;20087;-79
2022/10/16 05:32:53;;;;;;;3.10;1.92;;;12.80;99.90;;;;;;5052772;28;20041;-78
2022/10/16 05:35:20;;;;;;;3.00;1.88;;;12.80;99.90;;;;;;5052708;28;20494;-79
2022/10/16 05:37:46;;;;;;;3.03;2.08;;;12.90;99.90;;;;;;5052486;28;20045;-78
2022/10/16 05:40:12;;;;;;;2.83;2.17;;;12.80;99.90;;;;;;5052298;28;20065;-79
2022/10/16 05:42:39;;;;;;;2.85;1.83;;;12.90;99.90;;;;;;5052270;28;20045;-79
2022/10/16 05:45:06;;;;;;;2.83;1.88;;;12.90;99.90;;;;;;5052288;28;20056;-79
2022/10/16 05:47:32;;;;;;;2.40;1.80;;;12.90;99.90;;;;;;5052509;28;20089;-80
2022/10/16 05:49:58;;;;;;;3.40;2.00;;;12.90;99.90;;;;;;5052246;28;20053;-79
2022/10/16 05:52:23;;;;;;;6.45;2.45;;;12.90;99.90;;;;;;5051764;28;20469;-79
2022/10/16 05:54:49;;;;;;;2.22;2.03;;;12.90;99.90;;;;;;5052180;28;20044;-79
2022/10/16 05:57:15;;;;;;;3.80;2.33;;;12.90;99.90;;;;;;5052128;28;20057;-80
2022/10/16 05:59:41;;;;;;;3.40;1.90;;;12.90;99.90;;;;;;5051069;28;20045;-79
2022/10/16 06:02:12;;;;;;;2.67;2.47;;;12.90;99.90;;;;;;5052507;28;20071;-79
2022/10/16 06:04:38;;;;;;;4.63;2.22;;;12.90;99.90;;;;;;5085305;28;20060;-79
2022/10/16 06:07:03;;;;;;;5.18;1.80;;;12.90;99.90;;;;;;5052833;28;20045;-78
2022/10/16 06:09:29;;;;;;;3.55;2.00;;;12.90;99.90;;;;;;5052092;28;20475;-79
2022/10/16 06:11:55;;;;;;;4.38;2.30;;;12.90;99.90;;;;;;5052021;28;20045;-80
2022/10/16 06:14:20;;;;;;;3.22;2.45;;;12.90;99.90;;;;;;5052476;28;20082;-80
2022/10/16 06:16:46;;;;;;;8.88;2.35;;;12.90;99.90;;;;;;5084523;28;20099;-79
2022/10/16 06:19:12;;;;;;;2.42;2.22;;;12.90;99.90;;;;;;5052099;28;20045;-80
2022/10/16 06:21:37;;;;;;;3.05;2.30;;;12.90;99.90;;;;;;5052102;28;20053;-79
2022/10/16 06:24:04;;;;;;;2.75;1.92;;;12.90;99.90;;;;;;5051966;28;20049;-80
2022/10/16 06:26:31;;;;;;;5.45;2.22;;;12.90;99.90;;;;;;5054629;28;20483;-79
2022/10/16 06:28:58;;;;;;;3.90;2.15;;;12.90;99.90;;;;;;5055465;28;20483;-79
2022/10/16 06:31:30;;;;;;;4.47;2.85;;;13.00;99.90;;;;;;5055754;28;20045;-80
2022/10/16 06:33:57;;;;;;;3.33;2.20;;;13.00;99.90;;;;;;5056256;28;20041;-80
2022/10/16 06:36:23;;;;;;;3.40;2.63;;;13.00;99.90;;;;;;5088206;28;20052;-79
2022/10/16 06:38:49;;;;;;;3.25;2.20;;;13.00;99.90;;;;;;5055997;28;20049;-78
2022/10/16 06:41:18;;;;;;;3.03;2.38;;;13.10;99.90;;;;;;5055345;28;20041;-78
2022/10/16 06:43:47;;;;;;;5.05;2.45;;;13.10;99.90;;;;;;5055307;28;20053;-80
2022/10/16 06:46:15;;;;;;;3.22;2.35;;;13.10;99.90;;;;;;5055458;28;20041;-79
2022/10/16 06:48:42;;;;;;;3.58;1.90;;;13.10;99.90;;;;;;5055469;28;20063;-82
2022/10/16 06:51:13;;;;;;;2.05;1.80;;;13.20;99.90;;;;;;5055793;28;20103;-79
2022/10/16 06:53:42;;;;;;;6.32;2.33;;;13.20;99.90;;;;;;5055340;28;20089;-79
2022/10/16 06:56:10;;;;;;;3.55;1.92;;;13.30;99.90;;;;;;5055418;28;20079;-79
2022/10/16 06:58:35;;;;;;;2.90;1.98;;;13.30;99.90;;;;;;5055006;28;20053;-79
2022/10/16 07:01:01;;;;;;;2.50;1.95;;;13.30;99.90;;;;;;5055068;28;20356;-80
2022/10/16 07:03:27;;;;;;;8.05;1.75;;;13.40;99.90;;;;;;5055098;28;20081;-79
2022/10/16 07:05:52;;;;;;;4.35;1.88;;;13.40;99.90;;;;;;5055143;28;20095;-80
2022/10/16 07:08:18;;;;;;;3.50;2.28;;;13.50;99.90;;;;;;5055081;28;20049;-79
2022/10/16 07:10:43;;;;;;;5.38;1.90;;;13.50;99.90;;;;;;5070820;28;20044;-80
2022/10/16 07:13:12;;;;;;;4.07;1.85;;;13.60;99.90;;;;;;5054890;28;20083;-79
2022/10/16 07:15:39;;;;;;;3.42;2.65;;;13.60;99.90;;;;;;5055540;28;20055;-78
2022/10/16 07:18:04;;;;;;;2.80;1.90;;;13.60;99.90;;;;;;5055259;28;20399;-79
2022/10/16 07:20:30;;;;;;;3.95;1.90;;;13.70;99.90;;;;;;5054859;28;20128;-78
2022/10/16 07:22:56;;;;;;;4.22;2.35;;;13.80;99.90;;;;;;5054780;28;20053;-79
2022/10/16 07:25:21;;;;;;;10.55;2.40;;;13.80;99.90;;;;;;5054316;28;20139;-78
2022/10/16 07:27:50;;;;;;;2.00;1.55;;;13.90;99.90;;;;;;5054876;28;20478;-79
2022/10/16 07:30:15;;;;;;;3.80;1.92;;;13.90;99.90;;;;;;5054429;28;20048;-79
2022/10/16 07:32:41;;;;;;;5.20;2.20;;;14.10;99.90;;;;;;5054561;28;20557;-80
2022/10/16 07:35:07;;;;;;;2.45;1.65;;;14.10;99.90;;;;;;5054487;28;20049;-81
2022/10/16 07:37:33;;;;;;;2.28;2.15;;;14.20;99.90;;;;;;5054083;28;20047;-80
2022/10/16 07:39:58;;;;;;;6.07;2.00;;;14.20;99.90;;;;;;5054519;28;20467;-81
2022/10/16 07:42:24;;;;;;;6.68;2.45;;;14.20;99.90;;;;;;5054252;28;20049;-81
2022/10/16 07:44:50;;;;;;;3.35;1.85;;;14.20;99.90;;;;;;5086810;28;20049;-81
2022/10/16 07:47:15;;;;;;;4.03;1.98;;;14.10;99.90;;;;;;5054335;28;20055;-81
2022/10/16 07:49:41;;;;;;;3.15;2.08;;;14.10;99.90;;;;;;5070145;28;20049;-82
2022/10/16 07:52:07;;;;;;;5.65;2.10;;;14.10;99.90;;;;;;5054131;28;20055;-81
2022/10/16 07:54:32;;;;;;;2.47;1.90;;;14.10;99.90;;;;;;5054296;28;20049;-81
2022/10/16 07:56:58;;;;;;;3.03;1.75;;;14.20;99.90;;;;;;5054154;28;20096;-81
2022/10/16 07:59:24;;;;;;;2.47;1.95;;;14.20;99.90;;;;;;5054394;28;20110;-80
2022/10/16 08:01:49;;;;;;;1.80;1.70;;;14.30;99.90;;;;;;5052725;28;20056;-80
2022/10/16 08:04:15;;;;;;;5.32;1.83;;;14.40;99.90;;;;;;5069520;28;20053;-80
2022/10/16 08:06:41;;;;;;;4.18;2.55;;;14.30;99.90;;;;;;5052777;28;20398;-80
2022/10/16 08:09:08;;;;;;;1.77;1.63;;;14.40;99.90;;;;;;5054178;28;20049;-80
2022/10/16 08:11:34;;;;;;;2.83;1.67;;;14.40;99.90;;;;;;5053889;28;20048;-81
2022/10/16 08:14:00;;;;;;;3.33;1.58;;;14.50;99.90;;;;;;5054148;28;20041;-80
2022/10/16 08:16:25;;;;;;;2.28;1.55;;;14.50;99.90;;;;;;5055323;28;20083;-81
2022/10/16 08:18:51;;;;;;;3.60;1.52;;;14.60;99.90;;;;;;5055375;28;20045;-80
2022/10/16 08:21:22;;;;;;;1.45;1.35;;;14.60;99.90;;;;;;5054954;28;20075;-80
2022/10/16 08:23:49;;;;;;;2.63;1.80;;;14.70;99.90;;;;;;5053999;28;20049;-81
2022/10/16 08:26:15;;;;;;;2.22;1.58;;;14.70;99.90;;;;;;5053510;28;20162;-81
2022/10/16 08:28:40;;;;;;;1.23;1.13;;;14.80;99.90;;;;;;5085682;28;20275;-73
2022/10/16 08:31:12;;;;;;;6.00;1.50;;;14.90;99.90;;;;;;5053520;28;20094;-80
2022/10/16 08:33:38;;;;;;;3.25;1.45;;;14.90;99.90;;;;;;5053627;28;20059;-81
2022/10/16 08:36:05;;;;;;;3.55;1.40;;;14.90;99.90;;;;;;5052067;28;20063;-79
2022/10/16 08:38:32;;;;;;;4.55;1.85;;;14.90;99.90;;;;;;5053876;28;20049;-81
2022/10/16 08:41:14;;;;;;;3.63;1.35;;;14.90;99.90;;;;;;5053063;28;20501;-82
2022/10/16 08:43:51;;;;;;;4.72;1.20;;;14.90;99.90;;;;;;5053088;28;20429;-80
2022/10/16 08:46:20;;;;;;;3.10;1.10;;;15.00;99.90;;;;;;5053190;28;20052;-78
2022/10/16 08:48:54;;;;;;;1.48;1.30;;;15.10;99.90;;;;;;5052544;28;20055;-79
2022/10/16 08:51:32;;;;;;;1.30;1.00;;;15.00;99.90;;;;;;5052263;28;20053;-79
2022/10/16 08:54:02;;;;;;;5.72;1.45;;;15.10;99.90;;;;;;5053067;28;20056;-81
2022/10/16 08:56:28;;;;;;;1.33;1.10;;;15.10;99.90;;;;;;5052661;28;20526;-81
2022/10/16 08:58:54;;;;;;;4.43;1.33;;;15.30;99.90;;;;;;5053595;28;20049;-81
2022/10/16 09:01:23;;;;;;;2.58;1.67;;;15.30;99.90;;;;;;5053006;28;20433;-81
2022/10/16 09:03:49;;;;;;;2.63;1.35;;;15.30;99.90;;;;;;5052823;28;20116;-81
2022/10/16 09:06:22;;;;;;;1.70;1.30;;;15.40;99.90;;;;;;5053166;28;20064;-82
2022/10/16 09:09:38;;;;;;;2.25;1.25;;;15.50;99.90;;;;;;5053203;28;20131;-81
2022/10/16 09:12:24;;;;;;;5.60;1.50;;;15.60;99.90;;;;;;4990940;28;20054;-79
2022/10/16 09:14:58;;;;;;;2.08;1.48;;;15.80;99.90;;;;;;4991531;28;20050;-80
2022/10/16 09:17:30;;;;;;;2.35;1.50;;;15.80;99.90;;;;;;5024391;28;20094;-81
2022/10/16 09:20:13;;;;;;;3.03;1.50;;;15.90;99.90;;;;;;5053139;28;20060;-81
2022/10/16 09:22:39;;;;;;;3.53;1.30;;;16.10;99.90;;;;;;5052519;28;20131;-81
2022/10/16 09:25:17;;;;;;;4.40;1.35;;;16.00;99.90;;;;;;5052512;28;20084;-81
2022/10/16 09:27:46;;;;;;;1.88;1.15;;;16.00;99.90;;;;;;5052599;28;20049;-77
2022/10/16 09:30:13;;;;;;;3.17;1.30;;;16.20;99.90;;;;;;5052488;28;20048;-79
2022/10/16 09:32:41;;;;;;;8.75;2.28;;;16.30;99.90;;;;;;5052146;28;20124;-81
2022/10/16 09:35:21;;;;;;;5.03;1.85;;;16.30;99.90;;;;;;5052172;28;20052;-78
2022/10/16 09:37:49;;;;;;;4.70;1.40;;;16.50;99.90;;;;;;5052275;28;20045;-81
2022/10/16 09:40:36;;;;;;;4.30;1.35;;;16.60;99.90;;;;;;5052166;28;20049;-80
2022/10/16 09:43:30;;;;;;;5.25;1.88;;;16.60;99.90;;;;;;5052720;28;20072;-81
2022/10/16 09:46:01;;;;;;;4.78;1.70;;;16.70;99.90;;;;;;5051774;28;20560;-80
2022/10/16 09:48:38;;;;;;;5.25;1.75;;;16.80;99.90;;;;;;5052045;28;20178;-79
2022/10/16 09:51:05;;;;;;;4.55;2.05;;;16.90;99.90;;;;;;5052347;28;20154;-81
2022/10/16 09:53:43;;;;;;;4.93;2.00;;;17.20;99.90;;;;;;5052192;28;20096;-82
2022/10/16 09:56:13;;;;;;;7.28;2.50;;;17.30;99.90;;;;;;5052319;28;20049;-81
2022/10/16 09:58:42;;;;;;;4.60;2.10;;;17.70;99.90;;;;;;5051838;28;20490;-81
2022/10/16 10:01:13;;;;;;;5.60;2.00;;;17.80;99.90;;;;;;5054711;28;20135;-83
2022/10/16 10:03:41;;;;;;;8.15;2.33;;;18.40;99.90;;;;;;5056161;28;20128;-81
2022/10/16 10:06:17;;;;;;;5.75;1.80;;;18.40;99.90;;;;;;5056092;28;20049;-80
2022/10/16 10:08:58;;;;;;;3.42;1.80;;;18.50;99.90;;;;;;5056063;28;20128;-80
2022/10/16 10:11:37;;;;;;;6.50;1.88;;;18.60;99.90;;;;;;5056017;28;20051;-81
2022/10/16 10:14:15;;;;;;;9.68;2.22;;;18.40;99.90;;;;;;5056035;28;20041;-80
2022/10/16 10:16:40;;;;;;;2.47;1.75;;;18.90;99.90;;;;;;5056391;28;20052;-81
2022/10/16 10:19:14;;;;;;;6.38;2.28;;;20.30;99.90;;;;;;5055752;28;20513;-82
2022/10/16 10:21:40;;;;;;;5.53;2.03;;;20.80;99.90;;;;;;5054966;28;20388;-81
2022/10/16 10:24:11;;;;;;;6.00;1.80;;;20.70;99.90;;;;;;5056034;28;20047;-81
2022/10/16 10:26:38;;;;;;;4.18;1.90;;;20.00;99.90;;;;;;5055739;28;20540;-81
2022/10/16 10:29:23;;;;;;;7.15;2.15;;;19.20;99.90;;;;;;5054581;28;20555;-81
2022/10/16 10:32:14;;;;;;;5.45;2.13;;;18.80;99.90;;;;;;5055606;28;20454;-75
2022/10/16 10:34:55;;;;;;;4.40;2.03;;;18.40;99.90;;;;;;5055887;28;20049;-81
2022/10/16 10:37:49;;;;;;;5.82;2.35;;;18.20;99.90;;;;;;5055273;28;20137;-81
2022/10/16 10:40:30;;;;;;;4.13;2.00;;;17.90;99.90;;;;;;5055836;28;20053;-80
2022/10/16 10:43:20;;;;;;;6.13;2.33;;;17.80;99.90;;;;;;5055338;28;20463;-81
2022/10/16 10:45:48;;;;;;;5.93;1.75;;;17.70;99.90;;;;;;5055631;28;20045;-81
2022/10/16 10:48:43;;;;;;;6.45;1.92;;;17.70;99.90;;;;;;5055620;28;20081;-81
2022/10/16 10:51:21;;;;;;;6.97;2.60;;;17.70;99.90;;;;;;5055107;28;20045;-82
2022/10/16 10:54:12;;;;;;;3.17;1.85;;;17.60;99.90;;;;;;5055587;28;20119;-81
2022/10/16 10:57:01;;;;;;;5.05;1.60;;;17.40;99.90;;;;;;5055371;28;20152;-81
2022/10/16 10:59:33;;;;;;;8.23;2.13;;;17.30;99.90;;;;;;5055602;28;20067;-81
2022/10/16 11:02:31;;;;;;;6.43;1.70;;;17.30;99.90;;;;;;5054996;28;20068;-81
2022/10/16 11:04:57;;;;;;;5.85;2.00;;;17.30;99.90;;;;;;5055143;28;20153;-80
2022/10/16 11:07:35;;;;;;;5.72;1.95;;;17.40;99.90;;;;;;5055239;28;20045;-78
2022/10/16 11:10:22;;;;;;;10.73;2.28;;;17.40;99.90;;;;;;5055070;28;20048;-81
2022/10/16 11:12:53;;;;;;;6.07;1.98;;;17.40;99.90;;;;;;5053571;28;20116;-83
2022/10/16 11:15:25;;;;;;;9.50;2.70;;;17.40;99.90;;;;;;5054681;28;20060;-79
2022/10/16 11:18:30;;;;;;;8.52;2.50;;;17.40;99.90;;;;;;5055106;28;20128;-79
2022/10/16 11:21:04;;;;;;;7.60;2.50;;;17.20;99.90;;;;;;4993760;28;20121;-81
2022/10/16 11:23:50;;;;;;;8.32;2.33;;;17.20;99.90;;;;;;5049082;28;20057;-81
2022/10/16 11:26:39;;;;;;;5.28;2.30;;;17.10;99.90;;;;;;5055970;28;20037;-81
2022/10/16 11:29:15;;;;;;;12.05;2.00;;;17.20;99.90;;;;;;5054515;28;20040;-81
2022/10/16 11:31:51;;;;;;;6.82;2.05;;;17.30;99.90;;;;;;5054395;28;20466;-76
2022/10/16 11:34:36;;;;;;;4.43;2.30;;;17.30;99.90;;;;;;5054414;28;20048;-79
2022/10/16 11:37:12;;;;;;;8.77;2.85;;;17.50;99.90;;;;;;5053789;28;20048;-79
2022/10/16 11:39:38;;;;;;;6.22;1.73;;;17.60;99.90;;;;;;5054100;28;20099;-82
2022/10/16 11:42:13;;;;;;;10.95;2.35;;;17.70;99.90;;;;;;5054216;28;20048;-82
2022/10/16 11:44:44;;;;;;;6.18;2.22;;;17.70;99.90;;;;;;5053637;28;20049;-83
2022/10/16 11:47:35;;;;;;;6.07;1.77;;;17.70;99.90;;;;;;5053975;28;20455;-83
2022/10/16 11:50:09;;;;;;;5.28;2.10;;;17.70;99.90;;;;;;5054413;28;20087;-82
2022/10/16 11:52:50;;;;;;;5.75;1.70;;;17.80;99.90;;;;;;5053940;28;20041;-82
2022/10/16 11:55:20;;;;;;;9.85;2.03;;;17.90;99.90;;;;;;5053963;28;20044;-81
2022/10/16 11:57:57;;;;;;;7.32;2.28;;;18.00;99.90;;;;;;5053987;28;20103;-82
2022/10/16 12:00:25;;;;;;;9.27;2.15;;;18.00;99.90;;;;;;5052873;28;20511;-81
2022/10/16 12:03:09;;;;;;;6.22;1.58;;;17.90;99.90;;;;;;5054291;28;20060;-82
2022/10/16 12:05:55;;;;;;;4.35;1.83;;;17.90;99.90;;;;;;5069337;28;20045;-81
2022/10/16 12:08:21;;;;;;;3.72;1.70;;;18.00;99.90;;;;;;5053633;28;20045;-80
2022/10/16 12:10:48;;;;;;;5.85;1.92;;;18.00;99.90;;;;;;5053630;28;20041;-81
2022/10/16 12:13:48;;;;;;;7.13;2.00;;;18.10;99.90;;;;;;5052440;28;20134;-82
2022/10/16 12:16:13;;;;;;;7.22;2.20;;;18.20;99.90;;;;;;5020606;28;20053;-80
2022/10/16 12:18:44;;;;;;;7.20;2.15;;;18.20;99.90;;;;;;5053378;28;20055;-81
2022/10/16 12:21:13;;;;;;;3.53;1.88;;;18.30;99.90;;;;;;5052705;28;20063;-81
2022/10/16 12:23:46;;;;;;;5.05;2.08;;;18.30;99.90;;;;;;5069009;28;20053;-82
2022/10/16 12:26:12;;;;;;;7.07;2.25;;;18.40;99.90;;;;;;5053224;28;20057;-81
2022/10/16 12:28:39;;;;;;;9.40;2.60;;;18.50;99.90;;;;;;5053244;28;20052;-81
2022/10/16 12:31:08;;;;;;;8.90;3.88;;;18.50;99.90;;;;;;5053432;28;20112;-81
2022/10/16 12:33:42;;;;;;;8.73;2.92;;;18.50;99.90;;;;;;5051899;28;20036;-83
2022/10/16 12:36:35;;;;;;;5.57;2.40;;;18.50;99.90;;;;;;5052677;28;20123;-83
2022/10/16 12:39:01;;;;;;;6.40;1.70;;;18.60;99.90;;;;;;5060141;28;20057;-79
2022/10/16 12:41:33;;;;;;;5.70;2.25;;;18.70;99.90;;;;;;5053221;28;20045;-83
2022/10/16 12:44:02;;;;;;;6.68;2.00;;;18.70;99.30;;;;;;5053435;28;20095;-84
2022/10/16 12:46:32;;;;;;;5.90;1.83;;;18.60;99.90;;;;;;5052982;28;20059;-83
2022/10/16 12:49:13;;;;;;;10.02;3.00;;;18.60;98.10;;;;;;5052647;28;20119;-81
2022/10/16 12:51:40;;;;;;;11.10;3.25;;;18.50;98.50;;;;;;5052810;28;20667;-81
2022/10/16 12:54:29;;;;;;;5.97;1.98;;;18.60;99.90;;;;;;5052759;28;20076;-83
2022/10/16 12:57:19;;;;;;;4.90;2.20;;;18.70;99.90;;;;;;5052379;28;20470;-83
2022/10/16 13:00:08;;;;;;;5.88;1.77;;;18.80;99.30;;;;;;5053096;28;20127;-84
2022/10/16 13:03:11;;;;;;;6.97;2.28;;;18.90;98.90;;;;;;5030962;28;20056;-78
2022/10/16 13:06:09;;;;;;;7.87;3.43;;;18.80;99.40;;;;;;5053093;28;20072;-83